createdAt,value
2019-03-29T00:02:15.023Z,7.1
2019-03-29T00:07:15.314Z,7.1
2019-03-29T00:12:15.112Z,7.1
2019-03-29T00:17:15.169Z,7
2019-03-29T00:22:15.156Z,7
2019-03-29T00:27:15.199Z,7
2019-03-29T00:32:15.210Z,7.1
2019-03-29T00:37:15.146Z,7.1
2019-03-29T00:42:15.198Z,7.1
2019-03-29T00:47:15.427Z,7
2019-03-29T00:52:15.350Z,7
2019-03-29T00:57:15.402Z,7
2019-03-29T01:02:15.416Z,7
2019-03-29T01:07:15.414Z,6.9
2019-03-29T01:12:15.406Z,6.9
2019-03-29T01:17:15.932Z,6.9
2019-03-29T01:22:15.924Z,6.8
2019-03-29T01:27:15.936Z,6.7
2019-03-29T01:32:15.942Z,6.6
2019-03-29T01:37:15.934Z,6.6
2019-03-29T01:42:15.948Z,6.6
2019-03-29T01:47:15.946Z,6.5
2019-03-29T01:52:15.946Z,6.5
2019-03-29T01:57:15.930Z,6.5
2019-03-29T02:02:15.953Z,6.5
2019-03-29T02:07:15.943Z,6.4
2019-03-29T02:12:15.955Z,6.4
2019-03-29T02:17:15.954Z,6.3
2019-03-29T02:22:15.969Z,6.3
2019-03-29T02:27:15.966Z,6.3
2019-03-29T02:32:15.954Z,6.2
2019-03-29T02:37:15.974Z,6.1
2019-03-29T02:42:15.959Z,5.9
2019-03-29T02:47:15.980Z,5.8
2019-03-29T02:52:15.977Z,5.7
2019-03-29T02:57:16.071Z,5.6
2019-03-29T03:02:15.989Z,5.5
2019-03-29T03:07:15.967Z,5.5
2019-03-29T03:12:15.999Z,5.3
2019-03-29T03:17:15.991Z,5.2
2019-03-29T03:22:16.099Z,5.1
2019-03-29T03:27:16.088Z,4.9
2019-03-29T03:32:15.992Z,4.8
2019-03-29T03:37:15.985Z,4.7
2019-03-29T03:42:16.015Z,4.7
2019-03-29T03:47:16.006Z,4.6
2019-03-29T03:52:16.015Z,4.6
2019-03-29T03:57:16.026Z,4.6
2019-03-29T04:02:15.961Z,4.5
2019-03-29T04:07:15.998Z,4.5
2019-03-29T04:12:16.051Z,4.4
2019-03-29T04:17:15.971Z,4.4
2019-03-29T04:22:16.016Z,4.4
2019-03-29T04:27:16.042Z,4.5
2019-03-29T04:32:16.027Z,4.4
2019-03-29T04:37:16.137Z,4.4
2019-03-29T04:42:16.032Z,4.5
2019-03-29T04:47:16.022Z,4.5
2019-03-29T04:52:16.042Z,4.5
2019-03-29T04:57:16.044Z,4.5
2019-03-29T05:02:16.042Z,4.5
2019-03-29T05:07:16.030Z,4.5
2019-03-29T05:12:16.047Z,4.5
2019-03-29T05:17:16.055Z,4.5
2019-03-29T05:22:15.998Z,4.6
2019-03-29T05:27:16.061Z,4.6
2019-03-29T05:32:16.062Z,4.6
2019-03-29T05:37:16.003Z,4.7
2019-03-29T05:42:16.067Z,4.7
2019-03-29T05:47:16.067Z,4.8
2019-03-29T05:52:16.070Z,4.8
2019-03-29T05:57:16.082Z,4.9
2019-03-29T06:02:16.060Z,5
2019-03-29T06:07:16.083Z,5
2019-03-29T06:12:16.073Z,5.1
2019-03-29T06:17:17.121Z,5.2
2019-03-29T06:22:17.258Z,5.3
2019-03-29T06:27:17.184Z,5.3
2019-03-29T06:32:17.147Z,5.4
2019-03-29T06:37:17.171Z,5.7
2019-03-29T06:42:17.202Z,5.9
2019-03-29T06:47:17.437Z,6.1
2019-03-29T06:52:17.357Z,6.4
2019-03-29T06:57:17.307Z,6.7
2019-03-29T07:02:17.316Z,7
2019-03-29T07:07:17.313Z,7.3
2019-03-29T07:12:17.331Z,7.6
2019-03-29T07:17:17.312Z,7.9
2019-03-29T07:22:17.356Z,8.2
2019-03-29T07:27:17.283Z,8.4
2019-03-29T07:32:17.459Z,8.7
2019-03-29T07:37:17.274Z,9
2019-03-29T07:42:17.332Z,9.2
2019-03-29T07:47:17.327Z,9.4
2019-03-29T07:52:17.327Z,9.6
2019-03-29T07:57:20.288Z,9.7
2019-03-29T08:02:20.287Z,10
2019-03-29T08:07:26.891Z,10.1
2019-03-29T08:12:20.304Z,10.3
2019-03-29T08:17:20.299Z,10.6
2019-03-29T08:22:20.299Z,10.8
2019-03-29T08:27:20.307Z,10.7
2019-03-29T08:32:20.302Z,11
2019-03-29T08:37:20.435Z,11.1
2019-03-29T08:42:20.271Z,11.3
2019-03-29T08:47:20.325Z,11.3
2019-03-29T08:52:20.320Z,11.5
2019-03-29T08:57:20.262Z,11.6
2019-03-29T09:02:20.330Z,11.8
2019-03-29T09:07:20.456Z,12
2019-03-29T09:12:20.335Z,12.1
2019-03-29T09:17:20.266Z,12.2
2019-03-29T09:22:20.443Z,12.3
2019-03-29T09:27:20.382Z,12.3
2019-03-29T09:32:20.334Z,12.3
2019-03-29T09:37:20.338Z,12.5
2019-03-29T09:42:28.521Z,12.6
2019-03-29T09:47:20.338Z,12.8
2019-03-29T09:52:20.348Z,12.8
2019-03-29T09:57:20.329Z,13
2019-03-29T10:02:20.335Z,13.1
2019-03-29T10:07:20.340Z,13.1
2019-03-29T10:12:20.373Z,13.1
2019-03-29T10:17:20.404Z,13.2
2019-03-29T10:22:20.342Z,13.3
2019-03-29T10:27:20.371Z,13.4
2019-03-29T10:32:20.363Z,13.4
2019-03-29T10:37:20.360Z,13.4
2019-03-29T10:42:20.377Z,13.4
2019-03-29T10:47:20.363Z,13.6
2019-03-29T10:52:20.363Z,13.8
2019-03-29T10:57:20.381Z,13.7
2019-03-29T11:02:20.379Z,13.7
2019-03-29T11:07:20.380Z,13.8
2019-03-29T11:12:20.405Z,13.9
2019-03-29T11:17:20.394Z,13.9
2019-03-29T11:22:20.390Z,13.9
2019-03-29T11:27:22.412Z,13.9
2019-03-29T11:32:20.402Z,13.9
2019-03-29T11:37:20.419Z,14
2019-03-29T11:42:20.402Z,14.1
2019-03-29T11:47:20.404Z,14.2
2019-03-29T11:52:20.410Z,14.3
2019-03-29T11:57:20.412Z,14.2
2019-03-29T12:02:30.881Z,14.2
2019-03-29T12:07:20.409Z,14.3
2019-03-29T12:12:20.418Z,14.3
2019-03-29T12:17:20.414Z,14.5
2019-03-29T12:22:20.478Z,14.4
2019-03-29T12:27:20.490Z,14.6
2019-03-29T12:32:20.432Z,14.5
2019-03-29T12:37:20.569Z,14.7
2019-03-29T12:42:20.435Z,14.7
2019-03-29T12:47:20.431Z,14.8
2019-03-29T12:52:20.448Z,14.6
2019-03-29T12:57:20.444Z,14.7
2019-03-29T13:02:20.438Z,14.8
2019-03-29T13:07:20.449Z,14.7
2019-03-29T13:12:20.484Z,14.8
2019-03-29T13:17:20.391Z,14.9
2019-03-29T13:22:20.654Z,14.9
2019-03-29T13:27:20.459Z,15
2019-03-29T13:32:20.451Z,15.1
2019-03-29T13:37:20.462Z,15
2019-03-29T13:42:20.478Z,15.1
2019-03-29T13:47:20.520Z,15.1
2019-03-29T13:52:20.455Z,15.1
2019-03-29T13:57:20.470Z,15.1
2019-03-29T14:02:20.521Z,15.1
2019-03-29T14:07:20.412Z,15.1
2019-03-29T14:12:20.484Z,15.2
2019-03-29T14:17:20.501Z,15
2019-03-29T14:22:20.494Z,15.1
2019-03-29T14:27:20.483Z,15.1
2019-03-29T14:32:20.498Z,15.1
2019-03-29T14:37:20.434Z,15
2019-03-29T14:42:20.491Z,15.1
2019-03-29T14:47:20.503Z,15.1
2019-03-29T14:52:20.493Z,15
2019-03-29T14:57:20.609Z,15
2019-03-29T15:02:22.073Z,15
2019-03-29T15:07:20.557Z,14.9
2019-03-29T15:12:20.516Z,14.9
2019-03-29T15:17:21.585Z,14.9
2019-03-29T15:22:20.504Z,14.8
2019-03-29T15:27:20.510Z,14.7
2019-03-29T15:32:20.639Z,14.7
2019-03-29T15:37:20.522Z,14.6
2019-03-29T15:42:20.803Z,14.5
2019-03-29T15:47:20.522Z,14.5
2019-03-29T15:52:20.517Z,14.4
2019-03-29T15:57:20.596Z,14.3
2019-03-29T16:02:20.536Z,14.3
2019-03-29T16:07:20.556Z,14.2
2019-03-29T16:12:20.536Z,14.1
2019-03-29T16:17:20.551Z,14
2019-03-29T16:22:20.564Z,13.9
2019-03-29T16:27:20.599Z,13.8
2019-03-29T16:32:20.558Z,13.6
2019-03-29T16:37:20.693Z,13.5
2019-03-29T16:42:20.561Z,13.3
2019-03-29T16:47:20.546Z,13.2
2019-03-29T16:52:20.557Z,13.1
2019-03-29T16:57:20.588Z,12.9
2019-03-29T17:02:20.577Z,12.8
2019-03-29T17:07:20.581Z,12.6
2019-03-29T17:12:20.561Z,12.5
2019-03-29T17:17:20.557Z,12.3
2019-03-29T17:22:20.689Z,12.2
2019-03-29T17:27:20.529Z,12
2019-03-29T17:32:21.606Z,11.9
2019-03-29T17:37:21.122Z,11.8
2019-03-29T17:42:20.927Z,11.7
2019-03-29T17:47:20.590Z,11.5
2019-03-29T17:52:20.598Z,11.4
2019-03-29T17:57:20.822Z,11.3
2019-03-29T18:02:20.602Z,11.1
2019-03-29T18:07:20.718Z,11
2019-03-29T18:12:20.548Z,10.9
2019-03-29T18:17:20.624Z,10.8
2019-03-29T18:22:20.613Z,10.7
2019-03-29T18:27:20.607Z,10.6
2019-03-29T18:32:20.613Z,10.5
2019-03-29T18:37:20.616Z,10.4
2019-03-29T18:42:20.641Z,10.3
2019-03-29T18:47:20.773Z,10.2
2019-03-29T18:52:20.652Z,10.2
2019-03-29T18:57:21.062Z,10.2
2019-03-29T19:02:20.661Z,10.1
2019-03-29T19:07:20.592Z,10
2019-03-29T19:12:21.059Z,10
2019-03-29T19:17:20.781Z,9.9
2019-03-29T19:22:21.914Z,9.8
2019-03-29T19:27:20.681Z,9.7
2019-03-29T19:32:20.690Z,9.6
2019-03-29T19:37:20.654Z,9.5
2019-03-29T19:42:20.686Z,9.3
2019-03-29T19:47:20.658Z,9.1
2019-03-29T19:52:20.676Z,9
2019-03-29T19:57:20.658Z,8.8
2019-03-29T20:02:20.705Z,8.6
2019-03-29T20:07:20.674Z,8.5
2019-03-29T20:12:20.687Z,8.3
2019-03-29T20:17:27.175Z,8.1
2019-03-29T20:22:20.691Z,8
2019-03-29T20:27:20.711Z,7.8
2019-03-29T20:32:20.622Z,7.7
2019-03-29T20:37:20.683Z,7.6
2019-03-29T20:42:20.693Z,7.5
2019-03-29T20:47:20.712Z,7.3
2019-03-29T20:52:20.724Z,7.2
2019-03-29T20:57:20.841Z,7.1
2019-03-29T21:02:20.699Z,6.9
2019-03-29T21:07:20.705Z,6.8
2019-03-29T21:12:20.701Z,6.7
2019-03-29T21:17:20.713Z,6.6
2019-03-29T21:22:20.710Z,6.5
2019-03-29T21:27:20.705Z,6.4
2019-03-29T21:32:20.705Z,6.3
2019-03-29T21:37:20.709Z,6.2
2019-03-29T21:42:20.725Z,6.1
2019-03-29T21:47:20.716Z,6
2019-03-29T21:52:20.745Z,5.8
2019-03-29T21:57:20.716Z,5.7
2019-03-29T22:02:21.541Z,5.6
2019-03-29T22:07:20.786Z,5.6
2019-03-29T22:12:20.679Z,5.5
2019-03-29T22:17:20.724Z,5.4
2019-03-29T22:22:20.727Z,5.3
2019-03-29T22:27:20.719Z,5.2
2019-03-29T22:32:20.739Z,5.1
2019-03-29T22:37:20.672Z,5
2019-03-29T22:42:20.720Z,5
2019-03-29T22:47:20.741Z,4.9
2019-03-29T22:52:20.756Z,4.8
2019-03-29T22:57:20.754Z,4.7
2019-03-29T23:02:20.689Z,4.6
2019-03-29T23:07:20.760Z,4.6
2019-03-29T23:12:20.747Z,4.5
2019-03-29T23:17:20.759Z,4.5
2019-03-29T23:22:20.763Z,4.4
2019-03-29T23:27:20.755Z,4.3
2019-03-29T23:32:20.770Z,4.2
2019-03-29T23:37:20.774Z,4.2
2019-03-29T23:42:20.784Z,4.1
2019-03-29T23:47:20.773Z,4.1
2019-03-29T23:52:20.776Z,4
2019-03-29T23:57:20.787Z,4
